Aérodrome :
LOGIN :

S'inscrire | Disclaimer

   EN    FR    IT 

 










Légende :    VFR   VFR Marginal   IFR   IFR Intensif   IFR Très Intensif
Visi : 
Plafond : 
>= 8 km
>= 3000ft
5 à 8 km
1000 à 3000 ft
1500m à 5 km
500 à 1000 ft
800 à 1500m
200 à 500 ft
< 800m
< 200 ft
Symboles :   Orages  Brouillard  Fortes neiges  Fortes précipitations  Vent > 20 kt
SIGMETs :   Divers  Orages  Givrage  Turbulence  Onde Orograph.  Cendres Volcan.






- Altitude de l'aérodrome : 726 ft
- Code IATA : DIJ


LFSD - Dijon

DERNIER METAR :
  • 122030Z AUTO 18016KT 9999 -RA OVC014/// ///TCU 04/02 Q0993

METARs EXPIRÉS :
  • 122000Z AUTO 18014KT 9999 RA BKN018/// BKN027/// OVC034/// ///CB 04/02 Q0993
  • 121930Z AUTO 19015KT 9999 -RA BKN030/// OVC035/// ///CB 04/01 Q0994
  • 121900Z AUTO 19012KT 9999 -RA BKN033/// OVC056/// ///TCU 04/00 Q0995
  • 121830Z AUTO 18012KT 9999 BKN048/// BKN054/// BKN072/// ///TCU 05/M01 Q0996
  • 121800Z AUTO 18012KT 9999 FEW047 OVC088 05/M01 Q0996

Prévision TAF périmée.



MET'MAP, la Météo Aéronautique d'un coup d'oeil ! - Copyright ORBIFLY Décembre 2007 - Disclaimer

ORBIFLY MET'MAP TEAM :

Programmation & Développement : Alexandra Zaïnal
Sur une idée originale de : Baudouin d'Aumeries
Assistance à la programmation : Marc-Olivier Méhu
Soutien technique & logistique : Manuel Goepfert

Contact : metmap@orbifly.com




SOURCES & CREDITS :

   NOAA